sensor_id;sensor_type;location;lat;lon;timestamp;P1;durP1;ratioP1;P2;durP2;ratioP2
1885;SDS011;943;51.568;6.998;2022-12-29T00:00:24;2.23;;;1.40;;
1885;SDS011;943;51.568;6.998;2022-12-29T00:02:52;2.30;;;1.27;;
1885;SDS011;943;51.568;6.998;2022-12-29T00:05:19;2.67;;;1.30;;
1885;SDS011;943;51.568;6.998;2022-12-29T00:07:47;1.83;;;1.20;;
1885;SDS011;943;51.568;6.998;2022-12-29T00:10:14;2.30;;;1.17;;
1885;SDS011;943;51.568;6.998;2022-12-29T00:12:42;2.53;;;1.30;;
1885;SDS011;943;51.568;6.998;2022-12-29T00:15:28;2.27;;;1.30;;
1885;SDS011;943;51.568;6.998;2022-12-29T00:18:05;2.10;;;1.13;;
1885;SDS011;943;51.568;6.998;2022-12-29T00:20:35;2.20;;;1.20;;
1885;SDS011;943;51.568;6.998;2022-12-29T00:23:22;2.63;;;1.23;;
1885;SDS011;943;51.568;6.998;2022-12-29T00:26:15;2.30;;;1.30;;
1885;SDS011;943;51.568;6.998;2022-12-29T00:29:02;2.40;;;1.40;;
1885;SDS011;943;51.568;6.998;2022-12-29T00:31:49;2.60;;;1.30;;
1885;SDS011;943;51.568;6.998;2022-12-29T00:34:36;2.67;;;1.33;;
1885;SDS011;943;51.568;6.998;2022-12-29T00:37:22;2.30;;;1.40;;
1885;SDS011;943;51.568;6.998;2022-12-29T00:40:12;2.00;;;1.10;;
1885;SDS011;943;51.568;6.998;2022-12-29T00:42:59;2.17;;;1.20;;
1885;SDS011;943;51.568;6.998;2022-12-29T00:45:45;3.77;;;1.23;;
1885;SDS011;943;51.568;6.998;2022-12-29T00:48:13;2.40;;;1.97;;
1885;SDS011;943;51.568;6.998;2022-12-29T00:50:40;2.87;;;1.70;;
1885;SDS011;943;51.568;6.998;2022-12-29T00:53:08;4.50;;;1.40;;
1885;SDS011;943;51.568;6.998;2022-12-29T00:55:36;3.40;;;1.90;;
1885;SDS011;943;51.568;6.998;2022-12-29T00:58:04;4.53;;;1.63;;
1885;SDS011;943;51.568;6.998;2022-12-29T01:00:32;3.93;;;2.00;;
1885;SDS011;943;51.568;6.998;2022-12-29T01:03:00;4.50;;;2.40;;
1885;SDS011;943;51.568;6.998;2022-12-29T01:05:28;4.10;;;2.80;;
1885;SDS011;943;51.568;6.998;2022-12-29T01:07:55;4.17;;;2.67;;
1885;SDS011;943;51.568;6.998;2022-12-29T01:10:23;3.90;;;2.73;;
1885;SDS011;943;51.568;6.998;2022-12-29T01:12:51;5.50;;;3.03;;
1885;SDS011;943;51.568;6.998;2022-12-29T01:15:19;4.97;;;2.70;;
1885;SDS011;943;51.568;6.998;2022-12-29T01:17:47;3.87;;;2.10;;
1885;SDS011;943;51.568;6.998;2022-12-29T01:20:15;2.73;;;1.33;;
1885;SDS011;943;51.568;6.998;2022-12-29T01:22:43;6.40;;;2.13;;
1885;SDS011;943;51.568;6.998;2022-12-29T01:25:11;2.20;;;1.03;;
1885;SDS011;943;51.568;6.998;2022-12-29T01:27:39;1.90;;;0.97;;
1885;SDS011;943;51.568;6.998;2022-12-29T01:30:07;2.10;;;0.90;;
1885;SDS011;943;51.568;6.998;2022-12-29T01:32:36;3.20;;;1.03;;
1885;SDS011;943;51.568;6.998;2022-12-29T01:35:04;2.90;;;1.50;;
1885;SDS011;943;51.568;6.998;2022-12-29T01:37:33;3.80;;;1.00;;
1885;SDS011;943;51.568;6.998;2022-12-29T01:40:02;1.97;;;0.90;;
1885;SDS011;943;51.568;6.998;2022-12-29T01:42:31;2.00;;;0.90;;
1885;SDS011;943;51.568;6.998;2022-12-29T01:45:00;2.17;;;0.90;;
1885;SDS011;943;51.568;6.998;2022-12-29T01:47:57;2.70;;;1.07;;
1885;SDS011;943;51.568;6.998;2022-12-29T01:50:32;2.00;;;1.03;;
1885;SDS011;943;51.568;6.998;2022-12-29T01:53:17;2.03;;;0.90;;
1885;SDS011;943;51.568;6.998;2022-12-29T01:56:00;2.30;;;0.97;;
1885;SDS011;943;51.568;6.998;2022-12-29T01:58:39;3.70;;;0.90;;
1885;SDS011;943;51.568;6.998;2022-12-29T02:01:15;2.10;;;1.00;;
1885;SDS011;943;51.568;6.998;2022-12-29T02:03:48;1.80;;;0.70;;
1885;SDS011;943;51.568;6.998;2022-12-29T02:06:22;1.80;;;0.70;;
1885;SDS011;943;51.568;6.998;2022-12-29T02:09:03;2.10;;;0.80;;
1885;SDS011;943;51.568;6.998;2022-12-29T02:11:31;1.50;;;0.60;;
1885;SDS011;943;51.568;6.998;2022-12-29T02:14:01;2.10;;;0.80;;
1885;SDS011;943;51.568;6.998;2022-12-29T02:16:45;1.90;;;0.57;;
1885;SDS011;943;51.568;6.998;2022-12-29T02:24:15;2.33;;;0.73;;
1885;SDS011;943;51.568;6.998;2022-12-29T02:27:48;1.63;;;0.70;;
1885;SDS011;943;51.568;6.998;2022-12-29T02:31:18;2.53;;;0.80;;
1885;SDS011;943;51.568;6.998;2022-12-29T02:41:17;1.97;;;0.80;;
1885;SDS011;943;51.568;6.998;2022-12-29T02:47:11;2.13;;;0.77;;
1885;SDS011;943;51.568;6.998;2022-12-29T02:52:37;2.27;;;1.07;;
1885;SDS011;943;51.568;6.998;2022-12-29T02:55:21;2.90;;;1.00;;
1885;SDS011;943;51.568;6.998;2022-12-29T02:57:49;1.77;;;1.13;;
1885;SDS011;943;51.568;6.998;2022-12-29T03:11:10;1.80;;;0.70;;
1885;SDS011;943;51.568;6.998;2022-12-29T03:17:09;3.70;;;1.17;;
1885;SDS011;943;51.568;6.998;2022-12-29T03:20:10;2.47;;;0.90;;
1885;SDS011;943;51.568;6.998;2022-12-29T03:23:24;1.90;;;1.03;;
1885;SDS011;943;51.568;6.998;2022-12-29T03:25:56;1.90;;;0.83;;
1885;SDS011;943;51.568;6.998;2022-12-29T03:28:39;2.63;;;0.90;;
1885;SDS011;943;51.568;6.998;2022-12-29T03:31:24;1.93;;;0.80;;
1885;SDS011;943;51.568;6.998;2022-12-29T03:33:53;2.60;;;1.27;;
1885;SDS011;943;51.568;6.998;2022-12-29T03:36:28;2.07;;;0.90;;
1885;SDS011;943;51.568;6.998;2022-12-29T03:39:32;3.30;;;1.43;;
1885;SDS011;943;51.568;6.998;2022-12-29T03:42:01;1.97;;;0.80;;
1885;SDS011;943;51.568;6.998;2022-12-29T03:44:39;3.33;;;1.23;;
1885;SDS011;943;51.568;6.998;2022-12-29T03:47:13;1.80;;;0.87;;
1885;SDS011;943;51.568;6.998;2022-12-29T03:49:44;2.17;;;1.03;;
1885;SDS011;943;51.568;6.998;2022-12-29T03:52:13;4.13;;;0.90;;
1885;SDS011;943;51.568;6.998;2022-12-29T03:54:43;5.03;;;1.20;;
1885;SDS011;943;51.568;6.998;2022-12-29T03:57:12;2.30;;;0.90;;
1885;SDS011;943;51.568;6.998;2022-12-29T03:59:59;2.23;;;0.80;;
1885;SDS011;943;51.568;6.998;2022-12-29T04:02:29;3.80;;;1.00;;
1885;SDS011;943;51.568;6.998;2022-12-29T04:04:57;1.90;;;0.73;;
1885;SDS011;943;51.568;6.998;2022-12-29T04:07:25;2.93;;;0.80;;
1885;SDS011;943;51.568;6.998;2022-12-29T04:09:53;2.43;;;0.97;;
1885;SDS011;943;51.568;6.998;2022-12-29T04:12:23;1.70;;;0.80;;
1885;SDS011;943;51.568;6.998;2022-12-29T04:14:51;3.10;;;1.10;;
1885;SDS011;943;51.568;6.998;2022-12-29T04:17:19;1.77;;;0.80;;
1885;SDS011;943;51.568;6.998;2022-12-29T04:19:49;1.63;;;0.63;;
1885;SDS011;943;51.568;6.998;2022-12-29T04:22:18;2.47;;;0.80;;
1885;SDS011;943;51.568;6.998;2022-12-29T04:24:46;2.10;;;0.80;;
1885;SDS011;943;51.568;6.998;2022-12-29T04:27:14;2.03;;;0.90;;
1885;SDS011;943;51.568;6.998;2022-12-29T04:30:07;1.63;;;0.73;;
1885;SDS011;943;51.568;6.998;2022-12-29T04:33:06;2.33;;;0.80;;
1885;SDS011;943;51.568;6.998;2022-12-29T04:35:34;3.93;;;0.87;;
1885;SDS011;943;51.568;6.998;2022-12-29T04:38:02;2.03;;;0.90;;
1885;SDS011;943;51.568;6.998;2022-12-29T04:40:31;1.50;;;0.60;;
1885;SDS011;943;51.568;6.998;2022-12-29T04:42:59;2.13;;;0.80;;
1885;SDS011;943;51.568;6.998;2022-12-29T04:45:27;3.60;;;1.00;;
1885;SDS011;943;51.568;6.998;2022-12-29T04:48:06;3.20;;;1.00;;
1885;SDS011;943;51.568;6.998;2022-12-29T04:50:56;1.87;;;0.70;;
1885;SDS011;943;51.568;6.998;2022-12-29T04:53:25;2.30;;;0.80;;
1885;SDS011;943;51.568;6.998;2022-12-29T04:55:53;4.63;;;0.80;;
1885;SDS011;943;51.568;6.998;2022-12-29T04:58:21;3.00;;;0.90;;
1885;SDS011;943;51.568;6.998;2022-12-29T05:00:50;2.40;;;0.80;;
1885;SDS011;943;51.568;6.998;2022-12-29T05:03:22;2.60;;;1.13;;
1885;SDS011;943;51.568;6.998;2022-12-29T05:05:52;1.80;;;0.80;;
1885;SDS011;943;51.568;6.998;2022-12-29T05:08:23;2.47;;;0.90;;
1885;SDS011;943;51.568;6.998;2022-12-29T05:10:57;2.73;;;1.00;;
1885;SDS011;943;51.568;6.998;2022-12-29T05:13:25;2.00;;;0.80;;
1885;SDS011;943;51.568;6.998;2022-12-29T05:15:53;4.70;;;1.00;;
1885;SDS011;943;51.568;6.998;2022-12-29T05:18:22;3.40;;;0.97;;
1885;SDS011;943;51.568;6.998;2022-12-29T05:20:50;2.23;;;0.90;;
1885;SDS011;943;51.568;6.998;2022-12-29T05:23:19;2.13;;;1.27;;
1885;SDS011;943;51.568;6.998;2022-12-29T05:25:54;2.27;;;1.10;;
1885;SDS011;943;51.568;6.998;2022-12-29T05:28:57;5.90;;;1.30;;
1885;SDS011;943;51.568;6.998;2022-12-29T05:31:26;3.03;;;1.07;;
1885;SDS011;943;51.568;6.998;2022-12-29T05:33:54;3.07;;;1.20;;
1885;SDS011;943;51.568;6.998;2022-12-29T05:36:22;4.10;;;1.10;;
1885;SDS011;943;51.568;6.998;2022-12-29T05:38:56;3.27;;;1.27;;
1885;SDS011;943;51.568;6.998;2022-12-29T05:41:24;3.10;;;1.23;;
1885;SDS011;943;51.568;6.998;2022-12-29T05:44:11;3.60;;;1.13;;
1885;SDS011;943;51.568;6.998;2022-12-29T05:46:47;3.27;;;1.40;;
1885;SDS011;943;51.568;6.998;2022-12-29T05:49:29;6.00;;;1.40;;
1885;SDS011;943;51.568;6.998;2022-12-29T05:52:04;4.40;;;1.20;;
1885;SDS011;943;51.568;6.998;2022-12-29T05:54:33;2.47;;;1.10;;
1885;SDS011;943;51.568;6.998;2022-12-29T05:57:03;2.73;;;0.93;;
1885;SDS011;943;51.568;6.998;2022-12-29T05:59:33;3.77;;;2.20;;
1885;SDS011;943;51.568;6.998;2022-12-29T06:02:01;4.43;;;1.00;;
1885;SDS011;943;51.568;6.998;2022-12-29T06:04:30;4.37;;;1.10;;
1885;SDS011;943;51.568;6.998;2022-12-29T06:06:58;6.27;;;1.33;;
1885;SDS011;943;51.568;6.998;2022-12-29T06:09:35;3.10;;;0.90;;
1885;SDS011;943;51.568;6.998;2022-12-29T06:12:04;3.90;;;0.97;;
1885;SDS011;943;51.568;6.998;2022-12-29T06:14:33;2.70;;;1.40;;
1885;SDS011;943;51.568;6.998;2022-12-29T06:17:02;3.13;;;1.00;;
1885;SDS011;943;51.568;6.998;2022-12-29T06:19:31;2.53;;;0.80;;
1885;SDS011;943;51.568;6.998;2022-12-29T06:21:58;5.50;;;1.07;;
1885;SDS011;943;51.568;6.998;2022-12-29T06:24:31;1.70;;;0.70;;
1885;SDS011;943;51.568;6.998;2022-12-29T06:26:59;3.80;;;1.00;;
1885;SDS011;943;51.568;6.998;2022-12-29T06:29:27;2.93;;;0.83;;
1885;SDS011;943;51.568;6.998;2022-12-29T06:31:56;2.53;;;0.83;;
1885;SDS011;943;51.568;6.998;2022-12-29T06:34:26;2.97;;;1.00;;
1885;SDS011;943;51.568;6.998;2022-12-29T06:36:54;3.30;;;1.00;;
1885;SDS011;943;51.568;6.998;2022-12-29T06:39:22;4.43;;;1.20;;
1885;SDS011;943;51.568;6.998;2022-12-29T06:42:00;3.80;;;1.00;;
1885;SDS011;943;51.568;6.998;2022-12-29T06:44:38;2.33;;;0.90;;
1885;SDS011;943;51.568;6.998;2022-12-29T06:47:08;3.40;;;1.07;;
1885;SDS011;943;51.568;6.998;2022-12-29T06:49:37;2.30;;;1.00;;
1885;SDS011;943;51.568;6.998;2022-12-29T06:52:04;6.03;;;1.23;;
1885;SDS011;943;51.568;6.998;2022-12-29T06:54:38;3.73;;;1.13;;
1885;SDS011;943;51.568;6.998;2022-12-29T06:57:06;5.77;;;1.17;;
1885;SDS011;943;51.568;6.998;2022-12-29T06:59:34;2.53;;;0.80;;
1885;SDS011;943;51.568;6.998;2022-12-29T07:02:01;3.23;;;0.90;;
1885;SDS011;943;51.568;6.998;2022-12-29T07:04:30;2.77;;;1.20;;
1885;SDS011;943;51.568;6.998;2022-12-29T07:06:57;2.90;;;1.00;;
1885;SDS011;943;51.568;6.998;2022-12-29T07:09:25;5.40;;;1.00;;
1885;SDS011;943;51.568;6.998;2022-12-29T07:11:53;2.53;;;1.00;;
1885;SDS011;943;51.568;6.998;2022-12-29T07:14:20;5.13;;;1.30;;
1885;SDS011;943;51.568;6.998;2022-12-29T07:16:48;5.23;;;1.17;;
1885;SDS011;943;51.568;6.998;2022-12-29T07:19:16;3.90;;;0.90;;
1885;SDS011;943;51.568;6.998;2022-12-29T07:21:43;3.33;;;1.07;;
1885;SDS011;943;51.568;6.998;2022-12-29T07:24:11;2.23;;;0.80;;
1885;SDS011;943;51.568;6.998;2022-12-29T07:26:39;3.40;;;1.23;;
1885;SDS011;943;51.568;6.998;2022-12-29T07:29:08;2.87;;;1.00;;
1885;SDS011;943;51.568;6.998;2022-12-29T07:31:35;4.17;;;1.30;;
1885;SDS011;943;51.568;6.998;2022-12-29T07:34:03;5.97;;;1.20;;
1885;SDS011;943;51.568;6.998;2022-12-29T07:36:31;2.70;;;1.13;;
1885;SDS011;943;51.568;6.998;2022-12-29T07:39:00;3.37;;;1.07;;
1885;SDS011;943;51.568;6.998;2022-12-29T07:41:29;4.90;;;1.10;;
1885;SDS011;943;51.568;6.998;2022-12-29T07:44:00;6.43;;;1.00;;
1885;SDS011;943;51.568;6.998;2022-12-29T07:46:34;2.67;;;1.20;;
1885;SDS011;943;51.568;6.998;2022-12-29T07:49:21;4.10;;;1.50;;
1885;SDS011;943;51.568;6.998;2022-12-29T07:51:49;5.50;;;2.20;;
1885;SDS011;943;51.568;6.998;2022-12-29T07:54:17;3.20;;;1.40;;
1885;SDS011;943;51.568;6.998;2022-12-29T07:56:45;7.57;;;3.50;;
1885;SDS011;943;51.568;6.998;2022-12-29T07:59:13;3.60;;;1.87;;
1885;SDS011;943;51.568;6.998;2022-12-29T08:01:40;5.57;;;1.77;;
1885;SDS011;943;51.568;6.998;2022-12-29T08:04:08;4.33;;;2.00;;
1885;SDS011;943;51.568;6.998;2022-12-29T08:06:36;4.07;;;1.53;;
1885;SDS011;943;51.568;6.998;2022-12-29T08:09:04;6.97;;;2.03;;
1885;SDS011;943;51.568;6.998;2022-12-29T08:11:45;5.07;;;1.60;;
1885;SDS011;943;51.568;6.998;2022-12-29T08:14:13;2.90;;;1.20;;
1885;SDS011;943;51.568;6.998;2022-12-29T08:16:41;6.43;;;1.90;;
1885;SDS011;943;51.568;6.998;2022-12-29T08:19:10;8.93;;;1.73;;
1885;SDS011;943;51.568;6.998;2022-12-29T08:21:39;4.50;;;1.80;;
1885;SDS011;943;51.568;6.998;2022-12-29T08:24:07;8.00;;;1.43;;
1885;SDS011;943;51.568;6.998;2022-12-29T08:26:36;4.70;;;1.93;;
1885;SDS011;943;51.568;6.998;2022-12-29T08:29:04;7.80;;;1.60;;
1885;SDS011;943;51.568;6.998;2022-12-29T08:31:32;4.93;;;1.60;;
1885;SDS011;943;51.568;6.998;2022-12-29T08:33:59;10.77;;;1.50;;
1885;SDS011;943;51.568;6.998;2022-12-29T08:36:29;7.20;;;3.37;;
1885;SDS011;943;51.568;6.998;2022-12-29T08:38:57;7.30;;;2.27;;
1885;SDS011;943;51.568;6.998;2022-12-29T08:41:25;5.77;;;1.70;;
1885;SDS011;943;51.568;6.998;2022-12-29T08:43:52;6.87;;;1.43;;
1885;SDS011;943;51.568;6.998;2022-12-29T08:46:20;5.00;;;1.57;;
1885;SDS011;943;51.568;6.998;2022-12-29T08:48:48;4.57;;;1.60;;
1885;SDS011;943;51.568;6.998;2022-12-29T08:51:15;5.67;;;1.80;;
1885;SDS011;943;51.568;6.998;2022-12-29T08:53:49;3.53;;;1.70;;
1885;SDS011;943;51.568;6.998;2022-12-29T08:56:19;5.57;;;1.40;;
1885;SDS011;943;51.568;6.998;2022-12-29T08:58:51;4.90;;;1.57;;
1885;SDS011;943;51.568;6.998;2022-12-29T09:01:21;7.43;;;1.33;;
1885;SDS011;943;51.568;6.998;2022-12-29T09:03:50;4.73;;;1.30;;
1885;SDS011;943;51.568;6.998;2022-12-29T09:06:37;3.07;;;1.50;;
1885;SDS011;943;51.568;6.998;2022-12-29T09:09:06;3.63;;;1.50;;
1885;SDS011;943;51.568;6.998;2022-12-29T09:11:34;5.90;;;1.50;;
1885;SDS011;943;51.568;6.998;2022-12-29T09:14:02;8.33;;;1.77;;
1885;SDS011;943;51.568;6.998;2022-12-29T09:16:31;4.90;;;1.63;;
1885;SDS011;943;51.568;6.998;2022-12-29T09:19:00;4.90;;;1.43;;
1885;SDS011;943;51.568;6.998;2022-12-29T09:21:30;5.57;;;1.40;;
1885;SDS011;943;51.568;6.998;2022-12-29T09:23:58;4.67;;;1.40;;
1885;SDS011;943;51.568;6.998;2022-12-29T09:26:26;5.30;;;1.10;;
1885;SDS011;943;51.568;6.998;2022-12-29T09:28:54;6.73;;;1.67;;
1885;SDS011;943;51.568;6.998;2022-12-29T09:31:22;3.33;;;1.57;;
1885;SDS011;943;51.568;6.998;2022-12-29T09:33:51;6.43;;;1.60;;
1885;SDS011;943;51.568;6.998;2022-12-29T09:36:19;7.37;;;1.60;;
1885;SDS011;943;51.568;6.998;2022-12-29T09:38:46;3.20;;;1.00;;
1885;SDS011;943;51.568;6.998;2022-12-29T09:41:17;3.77;;;2.27;;
1885;SDS011;943;51.568;6.998;2022-12-29T09:47:11;6.70;;;1.60;;
1885;SDS011;943;51.568;6.998;2022-12-29T09:50:28;7.53;;;1.90;;
1885;SDS011;943;51.568;6.998;2022-12-29T09:53:02;9.77;;;2.00;;
1885;SDS011;943;51.568;6.998;2022-12-29T09:56:04;6.20;;;1.73;;
1885;SDS011;943;51.568;6.998;2022-12-29T10:05:16;6.90;;;1.73;;
1885;SDS011;943;51.568;6.998;2022-12-29T10:08:26;4.83;;;1.67;;
1885;SDS011;943;51.568;6.998;2022-12-29T10:15:14;3.90;;;1.50;;
1885;SDS011;943;51.568;6.998;2022-12-29T10:19:09;7.73;;;1.93;;
1885;SDS011;943;51.568;6.998;2022-12-29T10:26:14;6.17;;;1.97;;
1885;SDS011;943;51.568;6.998;2022-12-29T10:28:57;4.10;;;1.30;;
1885;SDS011;943;51.568;6.998;2022-12-29T10:34:31;4.90;;;1.27;;
1885;SDS011;943;51.568;6.998;2022-12-29T10:40:38;7.20;;;1.83;;
1885;SDS011;943;51.568;6.998;2022-12-29T10:43:28;8.87;;;1.43;;
1885;SDS011;943;51.568;6.998;2022-12-29T10:46:16;5.03;;;1.97;;
1885;SDS011;943;51.568;6.998;2022-12-29T10:49:06;8.87;;;1.40;;
1885;SDS011;943;51.568;6.998;2022-12-29T10:51:48;9.77;;;1.97;;
1885;SDS011;943;51.568;6.998;2022-12-29T10:54:26;5.63;;;1.93;;
1885;SDS011;943;51.568;6.998;2022-12-29T10:57:19;5.97;;;1.73;;
1885;SDS011;943;51.568;6.998;2022-12-29T11:00:14;5.60;;;1.60;;
1885;SDS011;943;51.568;6.998;2022-12-29T11:06:07;8.53;;;1.90;;
1885;SDS011;943;51.568;6.998;2022-12-29T11:09:13;7.33;;;1.63;;
1885;SDS011;943;51.568;6.998;2022-12-29T11:12:18;6.60;;;1.40;;
1885;SDS011;943;51.568;6.998;2022-12-29T11:17:43;6.33;;;2.20;;
1885;SDS011;943;51.568;6.998;2022-12-29T11:20:28;5.37;;;1.57;;
1885;SDS011;943;51.568;6.998;2022-12-29T11:23:22;5.90;;;1.33;;
1885;SDS011;943;51.568;6.998;2022-12-29T11:28:41;6.30;;;1.63;;
1885;SDS011;943;51.568;6.998;2022-12-29T11:31:45;6.23;;;1.57;;
1885;SDS011;943;51.568;6.998;2022-12-29T11:34:40;4.30;;;1.20;;
1885;SDS011;943;51.568;6.998;2022-12-29T11:40:18;4.80;;;1.50;;
1885;SDS011;943;51.568;6.998;2022-12-29T11:42:48;6.67;;;1.60;;
1885;SDS011;943;51.568;6.998;2022-12-29T11:45:33;8.80;;;1.73;;
1885;SDS011;943;51.568;6.998;2022-12-29T11:48:07;3.57;;;1.30;;
1885;SDS011;943;51.568;6.998;2022-12-29T11:50:53;8.10;;;2.50;;
1885;SDS011;943;51.568;6.998;2022-12-29T11:53:31;8.00;;;1.60;;
1885;SDS011;943;51.568;6.998;2022-12-29T11:56:20;8.17;;;1.47;;
1885;SDS011;943;51.568;6.998;2022-12-29T11:59:51;5.73;;;1.67;;
1885;SDS011;943;51.568;6.998;2022-12-29T12:08:17;4.37;;;1.60;;
1885;SDS011;943;51.568;6.998;2022-12-29T12:11:04;5.20;;;2.03;;
1885;SDS011;943;51.568;6.998;2022-12-29T12:17:12;6.87;;;1.63;;
1885;SDS011;943;51.568;6.998;2022-12-29T12:19:59;6.23;;;1.97;;
1885;SDS011;943;51.568;6.998;2022-12-29T12:26:34;7.17;;;1.60;;
1885;SDS011;943;51.568;6.998;2022-12-29T12:29:31;11.63;;;2.73;;
1885;SDS011;943;51.568;6.998;2022-12-29T12:49:24;9.10;;;2.30;;
1885;SDS011;943;51.568;6.998;2022-12-29T12:58:51;8.23;;;2.17;;
1885;SDS011;943;51.568;6.998;2022-12-29T13:02:02;6.43;;;1.47;;
1885;SDS011;943;51.568;6.998;2022-12-29T13:08:46;3.83;;;1.20;;
1885;SDS011;943;51.568;6.998;2022-12-29T13:19:14;12.10;;;2.83;;
1885;SDS011;943;51.568;6.998;2022-12-29T13:38:22;7.30;;;1.90;;
1885;SDS011;943;51.568;6.998;2022-12-29T13:41:46;5.60;;;1.60;;
1885;SDS011;943;51.568;6.998;2022-12-29T13:44:56;11.50;;;2.37;;
1885;SDS011;943;51.568;6.998;2022-12-29T13:47:38;8.33;;;1.70;;
1885;SDS011;943;51.568;6.998;2022-12-29T13:50:24;7.53;;;3.20;;
1885;SDS011;943;51.568;6.998;2022-12-29T13:56:12;8.30;;;2.00;;
1885;SDS011;943;51.568;6.998;2022-12-29T13:58:58;7.47;;;2.00;;
1885;SDS011;943;51.568;6.998;2022-12-29T14:01:58;8.80;;;2.27;;
1885;SDS011;943;51.568;6.998;2022-12-29T14:05:26;8.60;;;1.60;;
1885;SDS011;943;51.568;6.998;2022-12-29T14:08:03;6.57;;;2.00;;
1885;SDS011;943;51.568;6.998;2022-12-29T14:10:47;7.10;;;2.00;;
1885;SDS011;943;51.568;6.998;2022-12-29T14:13:22;9.63;;;2.00;;
1885;SDS011;943;51.568;6.998;2022-12-29T14:15:54;10.37;;;1.70;;
1885;SDS011;943;51.568;6.998;2022-12-29T14:18:26;7.20;;;1.80;;
1885;SDS011;943;51.568;6.998;2022-12-29T14:23:43;8.70;;;2.30;;
1885;SDS011;943;51.568;6.998;2022-12-29T14:29:15;3.97;;;1.53;;
1885;SDS011;943;51.568;6.998;2022-12-29T14:32:48;8.93;;;2.63;;
1885;SDS011;943;51.568;6.998;2022-12-29T14:35:00;4.70;;;1.73;;
1885;SDS011;943;51.568;6.998;2022-12-29T14:41:15;6.03;;;1.57;;
1885;SDS011;943;51.568;6.998;2022-12-29T14:46:49;10.00;;;2.03;;
1885;SDS011;943;51.568;6.998;2022-12-29T14:49:42;9.40;;;2.40;;
1885;SDS011;943;51.568;6.998;2022-12-29T14:52:32;5.83;;;2.13;;
1885;SDS011;943;51.568;6.998;2022-12-29T14:57:44;6.20;;;1.90;;
1885;SDS011;943;51.568;6.998;2022-12-29T15:00:35;7.77;;;1.80;;
1885;SDS011;943;51.568;6.998;2022-12-29T15:06:17;4.90;;;1.70;;
1885;SDS011;943;51.568;6.998;2022-12-29T15:09:04;4.80;;;1.77;;
1885;SDS011;943;51.568;6.998;2022-12-29T15:15:19;7.30;;;2.17;;
1885;SDS011;943;51.568;6.998;2022-12-29T15:17:53;5.00;;;1.70;;
1885;SDS011;943;51.568;6.998;2022-12-29T15:20:28;7.80;;;2.23;;
1885;SDS011;943;51.568;6.998;2022-12-29T15:23:00;9.73;;;1.70;;
1885;SDS011;943;51.568;6.998;2022-12-29T15:26:14;7.33;;;2.10;;
1885;SDS011;943;51.568;6.998;2022-12-29T15:28:45;4.00;;;1.77;;
1885;SDS011;943;51.568;6.998;2022-12-29T15:34:07;4.40;;;1.70;;
1885;SDS011;943;51.568;6.998;2022-12-29T15:36:39;6.87;;;1.70;;
1885;SDS011;943;51.568;6.998;2022-12-29T15:39:18;8.80;;;2.70;;
1885;SDS011;943;51.568;6.998;2022-12-29T15:46:12;3.87;;;1.50;;
1885;SDS011;943;51.568;6.998;2022-12-29T15:48:41;13.63;;;2.13;;
1885;SDS011;943;51.568;6.998;2022-12-29T15:51:52;5.20;;;1.40;;
1885;SDS011;943;51.568;6.998;2022-12-29T15:54:12;6.10;;;1.70;;
1885;SDS011;943;51.568;6.998;2022-12-29T15:56:48;4.30;;;2.23;;
1885;SDS011;943;51.568;6.998;2022-12-29T16:02:00;5.90;;;2.03;;
1885;SDS011;943;51.568;6.998;2022-12-29T16:04:37;6.27;;;2.20;;
1885;SDS011;943;51.568;6.998;2022-12-29T16:07:33;11.13;;;2.23;;
1885;SDS011;943;51.568;6.998;2022-12-29T16:10:22;5.07;;;2.53;;
1885;SDS011;943;51.568;6.998;2022-12-29T16:16:12;5.60;;;2.10;;
1885;SDS011;943;51.568;6.998;2022-12-29T16:18:53;7.37;;;2.10;;
1885;SDS011;943;51.568;6.998;2022-12-29T16:21:32;5.20;;;1.80;;
1885;SDS011;943;51.568;6.998;2022-12-29T16:24:06;9.07;;;2.13;;
1885;SDS011;943;51.568;6.998;2022-12-29T16:26:48;7.40;;;2.17;;
1885;SDS011;943;51.568;6.998;2022-12-29T16:29:36;7.67;;;1.77;;
1885;SDS011;943;51.568;6.998;2022-12-29T16:32:22;8.83;;;1.53;;
1885;SDS011;943;51.568;6.998;2022-12-29T16:35:13;4.07;;;1.70;;
1885;SDS011;943;51.568;6.998;2022-12-29T16:40:51;4.57;;;2.10;;
1885;SDS011;943;51.568;6.998;2022-12-29T16:43:29;6.20;;;2.20;;
1885;SDS011;943;51.568;6.998;2022-12-29T16:48:56;5.27;;;1.83;;
1885;SDS011;943;51.568;6.998;2022-12-29T16:51:31;5.13;;;2.20;;
1885;SDS011;943;51.568;6.998;2022-12-29T16:54:03;4.17;;;1.40;;
1885;SDS011;943;51.568;6.998;2022-12-29T16:56:32;5.80;;;2.60;;
1885;SDS011;943;51.568;6.998;2022-12-29T17:02:07;8.17;;;3.10;;
1885;SDS011;943;51.568;6.998;2022-12-29T17:04:46;10.80;;;3.90;;
1885;SDS011;943;51.568;6.998;2022-12-29T17:07:16;14.37;;;4.20;;
1885;SDS011;943;51.568;6.998;2022-12-29T17:09:52;6.33;;;2.53;;
1885;SDS011;943;51.568;6.998;2022-12-29T17:12:22;13.73;;;9.67;;
1885;SDS011;943;51.568;6.998;2022-12-29T17:15:00;4.90;;;3.40;;
1885;SDS011;943;51.568;6.998;2022-12-29T17:18:00;5.97;;;1.80;;
1885;SDS011;943;51.568;6.998;2022-12-29T17:20:34;6.30;;;1.70;;
1885;SDS011;943;51.568;6.998;2022-12-29T17:23:01;6.20;;;1.70;;
1885;SDS011;943;51.568;6.998;2022-12-29T17:25:51;5.83;;;1.97;;
1885;SDS011;943;51.568;6.998;2022-12-29T17:28:21;7.33;;;2.40;;
1885;SDS011;943;51.568;6.998;2022-12-29T17:31:03;4.80;;;1.40;;
1885;SDS011;943;51.568;6.998;2022-12-29T17:33:36;8.87;;;1.53;;
1885;SDS011;943;51.568;6.998;2022-12-29T17:36:08;6.27;;;2.00;;
1885;SDS011;943;51.568;6.998;2022-12-29T17:38:38;4.30;;;2.23;;
1885;SDS011;943;51.568;6.998;2022-12-29T17:41:10;5.67;;;2.87;;
1885;SDS011;943;51.568;6.998;2022-12-29T17:43:41;3.47;;;1.63;;
1885;SDS011;943;51.568;6.998;2022-12-29T17:46:10;8.27;;;1.90;;
1885;SDS011;943;51.568;6.998;2022-12-29T17:48:37;6.50;;;1.60;;
1885;SDS011;943;51.568;6.998;2022-12-29T17:51:05;5.27;;;1.30;;
1885;SDS011;943;51.568;6.998;2022-12-29T17:53:37;3.73;;;1.40;;
1885;SDS011;943;51.568;6.998;2022-12-29T17:56:05;8.33;;;1.77;;
1885;SDS011;943;51.568;6.998;2022-12-29T17:58:33;9.43;;;1.60;;
1885;SDS011;943;51.568;6.998;2022-12-29T18:01:00;5.57;;;1.43;;
1885;SDS011;943;51.568;6.998;2022-12-29T18:03:31;4.33;;;1.50;;
1885;SDS011;943;51.568;6.998;2022-12-29T18:06:04;4.57;;;1.87;;
1885;SDS011;943;51.568;6.998;2022-12-29T18:08:37;5.37;;;1.80;;
1885;SDS011;943;51.568;6.998;2022-12-29T18:11:15;6.53;;;1.80;;
1885;SDS011;943;51.568;6.998;2022-12-29T18:13:53;5.87;;;2.17;;
1885;SDS011;943;51.568;6.998;2022-12-29T18:16:21;4.13;;;2.73;;
1885;SDS011;943;51.568;6.998;2022-12-29T18:18:49;5.27;;;2.80;;
1885;SDS011;943;51.568;6.998;2022-12-29T18:21:18;7.33;;;2.73;;
1885;SDS011;943;51.568;6.998;2022-12-29T18:23:50;6.37;;;2.37;;
1885;SDS011;943;51.568;6.998;2022-12-29T18:26:22;4.87;;;2.80;;
1885;SDS011;943;51.568;6.998;2022-12-29T18:28:54;12.43;;;2.73;;
1885;SDS011;943;51.568;6.998;2022-12-29T18:31:25;7.37;;;2.80;;
1885;SDS011;943;51.568;6.998;2022-12-29T18:33:59;6.43;;;3.00;;
1885;SDS011;943;51.568;6.998;2022-12-29T18:36:39;5.93;;;2.43;;
1885;SDS011;943;51.568;6.998;2022-12-29T18:39:07;13.47;;;3.70;;
1885;SDS011;943;51.568;6.998;2022-12-29T18:41:35;7.47;;;3.80;;
1885;SDS011;943;51.568;6.998;2022-12-29T18:44:03;5.70;;;3.13;;
1885;SDS011;943;51.568;6.998;2022-12-29T18:46:38;9.80;;;3.07;;
1885;SDS011;943;51.568;6.998;2022-12-29T18:49:06;7.17;;;3.53;;
1885;SDS011;943;51.568;6.998;2022-12-29T18:51:34;6.43;;;2.83;;
1885;SDS011;943;51.568;6.998;2022-12-29T18:54:02;5.50;;;2.80;;
1885;SDS011;943;51.568;6.998;2022-12-29T18:56:29;8.07;;;3.57;;
1885;SDS011;943;51.568;6.998;2022-12-29T18:58:57;9.10;;;3.60;;
1885;SDS011;943;51.568;6.998;2022-12-29T19:01:25;11.07;;;4.90;;
1885;SDS011;943;51.568;6.998;2022-12-29T19:03:54;6.87;;;3.67;;
1885;SDS011;943;51.568;6.998;2022-12-29T19:06:23;14.87;;;4.50;;
1885;SDS011;943;51.568;6.998;2022-12-29T19:08:51;13.10;;;3.60;;
1885;SDS011;943;51.568;6.998;2022-12-29T19:11:18;10.03;;;3.77;;
1885;SDS011;943;51.568;6.998;2022-12-29T19:13:46;10.20;;;4.23;;
1885;SDS011;943;51.568;6.998;2022-12-29T19:16:18;17.07;;;5.00;;
1885;SDS011;943;51.568;6.998;2022-12-29T19:18:50;16.87;;;4.67;;
1885;SDS011;943;51.568;6.998;2022-12-29T19:21:34;15.17;;;4.50;;
1885;SDS011;943;51.568;6.998;2022-12-29T19:24:03;17.63;;;4.60;;
1885;SDS011;943;51.568;6.998;2022-12-29T19:26:33;9.47;;;3.97;;